Svartfoss — V2PR3 — position and weather

sailwx.info

Track history (hours):
 
Tides and Currents Weather Stations Pressure Air Temp Water Temp Dewpoint Dewpoint Depression Visibility Wind Speed Wind Dir Waves Ship Positions

Svartfoss

Last reported at 2016-Jul-24 17:32 UTC. Time now 2016-Jul-24 18:32 UTC.
Position N 52°28' E 004°40'.

Length 80 m; draft 5.5 m.

Type: Cargo ship. MMSI: 304882000.

Date/timePositionNaut miles runAvg speedWind from/ knotsBaromVisibWave heightAir tempDewpointWater temp
2016-Jul-24 17:32N 52°28' E 004°40'0 0.0
2016-Jul-24 16:31N 52°28' E 004°40'0 0.0
2016-Jul-24 15:31N 52°28' E 004°40'0 0.0
2016-Jul-24 14:31N 52°28' E 004°40'0 0.0
2016-Jul-24 13:31N 52°28' E 004°40'0 0.0
2016-Jul-24 12:31N 52°28' E 004°40'0 0.0
2016-Jul-24 11:31N 52°28' E 004°40'0 0.0
2016-Jul-24 10:31N 52°28' E 004°40'0 0.0
2016-Jul-24 09:31N 52°28' E 004°40'0 0.0
2016-Jul-24 08:31N 52°28' E 004°40'0 0.0
2016-Jul-24 07:31N 52°28' E 004°40'0 0.0
2016-Jul-24 06:31N 52°28' E 004°40'0 0.0
2016-Jul-24 05:31N 52°28' E 004°40'0 0.0
2016-Jul-24 04:31N 52°28' E 004°40'0 0.0
2016-Jul-24 03:31N 52°28' E 004°40'0 0.0
2016-Jul-24 02:31N 52°28' E 004°40'0 0.0
2016-Jul-24 01:31N 52°28' E 004°40'0 0.0
2016-Jul-24 00:31N 52°28' E 004°40'0 0.0
2016-Jul-23 23:31N 52°28' E 004°40'0 0.0
2016-Jul-23 22:31N 52°28' E 004°40'0 0.0
2016-Jul-23 21:31N 52°28' E 004°40'0 0.0
2016-Jul-23 20:31N 52°28' E 004°40'0 0.0
2016-Jul-23 19:31N 52°28' E 004°40'0 0.0
2016-Jul-23 18:31N 52°28' E 004°40'0 0.0
2016-Jul-23 17:31N 52°28' E 004°40'0 0.0
2016-Jul-23 16:31N 52°28' E 004°40'0 0.0
2016-Jul-23 15:31N 52°28' E 004°40'0 0.0
2016-Jul-23 14:31N 52°28' E 004°40'0 0.0
2016-Jul-23 13:31N 52°28' E 004°40'0 0.0
2016-Jul-23 12:31N 52°28' E 004°40'2 2.2
2016-Jul-23 11:33N 52°28' E 004°36'7 7.3
2016-Jul-23 10:33N 52°34' E 004°29'8613.4
2016-Jul-23 04:10N 53°58' E 004°53'914.6
2016-Jul-23 03:33N 54°07' E 004°57'27714.4
2016-Jul-22 08:22N 58°44' E 004°48'1212.8
2016-Jul-22 07:24N 58°56' E 004°48'1514.2
2016-Jul-22 06:22N 59°11' E 004°49'372 9.7
2016-Jul-20 16:12N 64°41' E 010°49'914.7
2016-Jul-20 15:33N 64°48' E 011°05'6 5.1
2016-Jul-20 14:28N 64°52' E 011°14'0 0.0
2016-Jul-20 13:31N 64°52' E 011°14'0 0.0
2016-Jul-20 12:31N 64°52' E 011°14'0 0.0
2016-Jul-20 11:31N 64°52' E 011°14'0 0.0
2016-Jul-20 10:31N 64°52' E 011°14'0 0.0
2016-Jul-20 09:34N 64°52' E 011°14'0 0.0
2016-Jul-20 08:34N 64°52' E 011°14'0 0.0
2016-Jul-20 07:33N 64°52' E 011°14'0 0.0
2016-Jul-20 06:33N 64°52' E 011°14'0 0.0
2016-Jul-20 05:33N 64°52' E 011°14'0 0.0
2016-Jul-20 04:33N 64°52' E 011°14'0 0.0
2016-Jul-20 03:33N 64°52' E 011°14'0 0.0
2016-Jul-20 02:33N 64°52' E 011°14'0 0.0
2016-Jul-20 01:33N 64°52' E 011°14'0 0.0
2016-Jul-20 00:33N 64°52' E 011°14'0 0.0
2016-Jul-19 23:33N 64°52' E 011°14'0 0.0
2016-Jul-19 22:33N 64°52' E 011°14'0 0.0
2016-Jul-19 21:30N 64°52' E 011°14'0 0.0
2016-Jul-19 20:33N 64°52' E 011°14'3 2.9
2016-Jul-19 19:34N 64°54' E 011°19'0 0.5
2016-Jul-19 18:33N 64°54' E 011°20'3 3.3
2016-Jul-19 17:33N 64°52' E 011°14'0 0.0
2016-Jul-19 16:33N 64°52' E 011°14'0 0.0
2016-Jul-19 15:33N 64°52' E 011°14'0 0.0
2016-Jul-19 14:33N 64°52' E 011°14'0 0.0
2016-Jul-19 13:33N 64°52' E 011°14'0 0.0
2016-Jul-19 12:34N 64°52' E 011°14'1010.1
2016-Jul-19 11:33N 64°58' E 011°33'1414.2
2016-Jul-19 10:33N 65°10' E 011°51'8413.8
2016-Jul-19 04:30N 66°29' E 012°59'  
Track history (hours):
 
Tides and Currents Weather Stations Pressure Air Temp Water Temp Dewpoint Dewpoint Depression Visibility Wind Speed Wind Dir Waves Ship Positions

Svartfoss

Last reported at 2016-Jul-24 17:32 UTC. Time now 2016-Jul-24 18:32 UTC.
Position N 52°28' E 004°40'.

Length 80 m; draft 5.5 m.

Type: Cargo ship. MMSI: 304882000.

Date/timePositionNaut miles runAvg speedWind from/ knotsBaromVisibWave heightAir tempDewpointWater temp
2016-Jul-24 17:32N 52°28' E 004°40'0 0.0
2016-Jul-24 16:31N 52°28' E 004°40'0 0.0
2016-Jul-24 15:31N 52°28' E 004°40'0 0.0
2016-Jul-24 14:31N 52°28' E 004°40'0 0.0
2016-Jul-24 13:31N 52°28' E 004°40'0 0.0
2016-Jul-24 12:31N 52°28' E 004°40'0 0.0
2016-Jul-24 11:31N 52°28' E 004°40'0 0.0
2016-Jul-24 10:31N 52°28' E 004°40'0 0.0
2016-Jul-24 09:31N 52°28' E 004°40'0 0.0
2016-Jul-24 08:31N 52°28' E 004°40'0 0.0
2016-Jul-24 07:31N 52°28' E 004°40'0 0.0
2016-Jul-24 06:31N 52°28' E 004°40'0 0.0
2016-Jul-24 05:31N 52°28' E 004°40'0 0.0
2016-Jul-24 04:31N 52°28' E 004°40'0 0.0
2016-Jul-24 03:31N 52°28' E 004°40'0 0.0
2016-Jul-24 02:31N 52°28' E 004°40'0 0.0
2016-Jul-24 01:31N 52°28' E 004°40'0 0.0
2016-Jul-24 00:31N 52°28' E 004°40'0 0.0
2016-Jul-23 23:31N 52°28' E 004°40'0 0.0
2016-Jul-23 22:31N 52°28' E 004°40'0 0.0
2016-Jul-23 21:31N 52°28' E 004°40'0 0.0
2016-Jul-23 20:31N 52°28' E 004°40'0 0.0
2016-Jul-23 19:31N 52°28' E 004°40'0 0.0
2016-Jul-23 18:31N 52°28' E 004°40'0 0.0
2016-Jul-23 17:31N 52°28' E 004°40'0 0.0
2016-Jul-23 16:31N 52°28' E 004°40'0 0.0
2016-Jul-23 15:31N 52°28' E 004°40'0 0.0
2016-Jul-23 14:31N 52°28' E 004°40'0 0.0
2016-Jul-23 13:31N 52°28' E 004°40'0 0.0
2016-Jul-23 12:31N 52°28' E 004°40'2 2.2
2016-Jul-23 11:33N 52°28' E 004°36'7 7.3
2016-Jul-23 10:33N 52°34' E 004°29'8613.4
2016-Jul-23 04:10N 53°58' E 004°53'914.6
2016-Jul-23 03:33N 54°07' E 004°57'27714.4
2016-Jul-22 08:22N 58°44' E 004°48'1212.8
2016-Jul-22 07:24N 58°56' E 004°48'1514.2
2016-Jul-22 06:22N 59°11' E 004°49'372 9.7
2016-Jul-20 16:12N 64°41' E 010°49'914.7
2016-Jul-20 15:33N 64°48' E 011°05'6 5.1
2016-Jul-20 14:28N 64°52' E 011°14'0 0.0
2016-Jul-20 13:31N 64°52' E 011°14'0 0.0
2016-Jul-20 12:31N 64°52' E 011°14'0 0.0
2016-Jul-20 11:31N 64°52' E 011°14'0 0.0
2016-Jul-20 10:31N 64°52' E 011°14'0 0.0
2016-Jul-20 09:34N 64°52' E 011°14'0 0.0
2016-Jul-20 08:34N 64°52' E 011°14'0 0.0
2016-Jul-20 07:33N 64°52' E 011°14'0 0.0
2016-Jul-20 06:33N 64°52' E 011°14'0 0.0
2016-Jul-20 05:33N 64°52' E 011°14'0 0.0
2016-Jul-20 04:33N 64°52' E 011°14'0 0.0
2016-Jul-20 03:33N 64°52' E 011°14'0 0.0
2016-Jul-20 02:33N 64°52' E 011°14'0 0.0
2016-Jul-20 01:33N 64°52' E 011°14'0 0.0
2016-Jul-20 00:33N 64°52' E 011°14'0 0.0
2016-Jul-19 23:33N 64°52' E 011°14'0 0.0
2016-Jul-19 22:33N 64°52' E 011°14'0 0.0
2016-Jul-19 21:30N 64°52' E 011°14'0 0.0
2016-Jul-19 20:33N 64°52' E 011°14'3 2.9
2016-Jul-19 19:34N 64°54' E 011°19'0 0.5
2016-Jul-19 18:33N 64°54' E 011°20'3 3.3
2016-Jul-19 17:33N 64°52' E 011°14'0 0.0
2016-Jul-19 16:33N 64°52' E 011°14'0 0.0
2016-Jul-19 15:33N 64°52' E 011°14'0 0.0
2016-Jul-19 14:33N 64°52' E 011°14'0 0.0
2016-Jul-19 13:33N 64°52' E 011°14'0 0.0
2016-Jul-19 12:34N 64°52' E 011°14'1010.1
2016-Jul-19 11:33N 64°58' E 011°33'1414.2
2016-Jul-19 10:33N 65°10' E 011°51'8413.8
2016-Jul-19 04:30N 66°29' E 012°59'  

Dump ship's entire track history